createdAt,value
2022-12-19T13:27:05.130Z,3.43
2022-12-19T13:29:52.263Z,3.30
2022-12-19T13:32:22.173Z,2.70
2022-12-19T13:35:10.592Z,3.63
2022-12-19T13:39:59.351Z,4.40
2022-12-19T13:40:58.452Z,14.43
2022-12-19T13:43:48.574Z,11.70
2022-12-19T13:46:47.893Z,33.33
2022-12-19T13:49:25.103Z,31.77
2022-12-19T13:51:59.624Z,20.60
2022-12-19T13:59:13.393Z,5.43
2022-12-19T14:01:41.709Z,3.80
2022-12-19T14:04:32.367Z,3.50
2022-12-19T14:07:07.006Z,4.93
2022-12-19T14:11:33.117Z,3.70
2022-12-19T14:13:53.142Z,4.57
2022-12-19T14:15:44.885Z,3.63
2022-12-19T14:18:44.333Z,3.57
2022-12-19T14:22:05.173Z,3.30
2022-12-19T14:24:22.736Z,3.87
2022-12-19T14:28:17.825Z,4.40
2022-12-19T14:30:28.446Z,4.90
2022-12-19T14:33:44.123Z,4.53
2022-12-19T14:36:06.107Z,5.80
2022-12-19T14:39:22.476Z,8.00
2022-12-19T14:42:04.567Z,7.17
2022-12-19T14:54:08.900Z,7.93
2022-12-19T14:54:08.900Z,7.00
2022-12-19T14:54:13.431Z,9.43
2022-12-19T14:54:52.537Z,8.80
2022-12-19T14:59:01.732Z,8.67
2022-12-19T15:01:54.366Z,15.63
2022-12-19T15:04:47.788Z,11.03
2022-12-19T15:07:24.367Z,10.97
2022-12-19T15:11:04.266Z,11.80
2022-12-19T15:14:47.192Z,11.57
2022-12-19T15:16:08.150Z,18.20
2022-12-19T15:18:41.152Z,20.50
2022-12-19T15:21:15.651Z,18.77
2022-12-19T15:23:44.898Z,14.20
2022-12-19T15:26:15.142Z,10.77
2022-12-19T15:28:51.263Z,12.43
2022-12-19T15:31:35.279Z,11.43
2022-12-19T15:34:51.982Z,11.97
2022-12-19T15:37:13.572Z,12.20
2022-12-19T15:39:41.694Z,10.37
2022-12-19T15:42:23.557Z,9.77
2022-12-19T15:44:52.228Z,10.53
2022-12-19T15:47:34.414Z,16.37
2022-12-19T15:50:07.163Z,16.90
2022-12-19T15:52:39.545Z,13.83
2022-12-19T15:55:07.875Z,19.87
2022-12-19T15:57:37.305Z,28.43
2022-12-19T16:00:23.813Z,19.47
2022-12-19T16:05:39.301Z,23.47
2022-12-19T16:08:15.249Z,17.30
2022-12-19T16:10:48.228Z,22.57
2022-12-19T16:13:31.053Z,30.73
2022-12-19T16:16:46.683Z,16.93
2022-12-19T16:19:30.185Z,14.97
2022-12-19T16:21:58.215Z,11.57
2022-12-19T16:24:26.946Z,7.40
2022-12-19T16:26:59.326Z,7.17
2022-12-19T16:29:29.178Z,7.80
2022-12-19T16:32:03.953Z,6.07
2022-12-19T16:34:31.648Z,6.40
2022-12-19T16:36:59.093Z,6.27
2022-12-19T16:39:26.975Z,7.17
2022-12-19T16:41:54.874Z,6.80
2022-12-19T16:44:23.623Z,7.47
2022-12-19T16:46:51.779Z,6.40
2022-12-19T16:49:21.056Z,6.80
2022-12-19T16:51:49.572Z,6.30
2022-12-19T16:54:17.654Z,7.10
2022-12-19T16:56:52.514Z,6.47
2022-12-19T16:59:28.601Z,6.80
2022-12-19T17:01:56.437Z,7.00
2022-12-19T17:04:25.713Z,7.13
2022-12-19T17:06:56.208Z,7.30
2022-12-19T17:09:25.016Z,6.80
2022-12-19T17:11:59.436Z,6.63
2022-12-19T17:14:27.877Z,6.80
2022-12-19T17:17:00.731Z,7.00
2022-12-19T17:19:34.772Z,6.77
2022-12-19T17:22:02.425Z,6.93
2022-12-19T17:24:30.025Z,7.13
2022-12-19T17:26:58.490Z,7.13
2022-12-19T17:29:26.099Z,8.43
2022-12-19T17:31:53.641Z,8.73
2022-12-19T17:34:30.047Z,7.73
2022-12-19T17:37:01.187Z,8.70
2022-12-19T17:39:30.985Z,29.60
2022-12-19T17:42:00.297Z,35.30
2022-12-19T17:44:29.303Z,24.80
2022-12-19T17:46:57.046Z,16.83
2022-12-19T17:49:27.964Z,15.50
2022-12-19T17:51:57.317Z,12.90
2022-12-19T17:54:25.278Z,12.87
2022-12-19T17:56:53.299Z,10.70
2022-12-19T17:59:23.366Z,9.83
2022-12-19T18:01:51.139Z,9.07
2022-12-19T18:04:21.505Z,9.00
2022-12-19T18:06:50.477Z,33.13
2022-12-19T18:09:38.677Z,57.30
2022-12-19T18:12:07.392Z,50.87
2022-12-19T18:14:35.032Z,41.73
2022-12-19T18:17:03.030Z,41.50
2022-12-19T18:19:33.997Z,83.27
2022-12-19T18:22:01.553Z,83.70
2022-12-19T18:24:29.227Z,88.30
2022-12-19T18:26:58.648Z,58.10
2022-12-19T18:29:27.305Z,74.47
2022-12-19T18:31:57.548Z,67.67
2022-12-19T18:34:35.687Z,81.90
2022-12-19T18:37:06.832Z,56.70
2022-12-19T18:39:39.001Z,47.27
2022-12-19T18:42:32.561Z,40.73
2022-12-19T18:45:00.116Z,25.60
2022-12-19T18:47:28.310Z,24.50
2022-12-19T18:49:58.353Z,20.17
2022-12-19T18:52:27.235Z,20.77
2022-12-19T18:54:54.862Z,19.20
2022-12-19T18:57:22.450Z,22.50
2022-12-19T18:59:51.647Z,24.43
2022-12-19T19:02:28.995Z,15.10
2022-12-19T19:04:57.558Z,12.50
2022-12-19T19:07:25.956Z,10.87
2022-12-19T19:09:54.901Z,9.10
2022-12-19T19:12:26.920Z,8.57
2022-12-19T19:14:54.799Z,8.33
2022-12-19T19:17:28.527Z,8.20
2022-12-19T19:19:55.988Z,7.13
2022-12-19T19:22:25.620Z,6.83
2022-12-19T19:24:53.839Z,18.77
2022-12-19T19:27:21.586Z,11.27
2022-12-19T19:29:49.267Z,57.40
2022-12-19T19:32:17.375Z,28.03
2022-12-19T19:34:45.924Z,47.63
2022-12-19T19:37:16.377Z,14.70
2022-12-19T19:39:45.439Z,8.40
2022-12-19T19:42:14.221Z,8.60
2022-12-19T19:44:56.003Z,29.00
2022-12-19T19:47:32.233Z,14.83
2022-12-19T19:50:01.209Z,14.80
2022-12-19T19:52:30.789Z,14.80
2022-12-19T19:55:16.551Z,14.67
2022-12-19T19:57:49.178Z,10.93
2022-12-19T20:00:19.060Z,12.80
2022-12-19T20:26:38.587Z,42.20
2022-12-19T21:28:15.004Z,23.40
2022-12-19T21:49:45.780Z,27.17
2022-12-19T22:03:48.205Z,25.37
2022-12-19T22:07:15.466Z,22.80
2022-12-19T22:10:20.168Z,21.60
2022-12-19T22:16:47.135Z,19.20
2022-12-19T22:19:22.307Z,14.67
2022-12-19T22:21:51.330Z,15.10
2022-12-19T22:24:25.312Z,14.07
2022-12-19T22:26:54.973Z,11.60
2022-12-19T22:29:23.880Z,10.30
2022-12-19T22:31:55.759Z,9.80
2022-12-19T22:34:31.557Z,9.57
2022-12-19T22:37:09.313Z,9.27
2022-12-19T22:39:38.876Z,7.70
2022-12-19T22:42:09.545Z,6.90
2022-12-19T22:44:38.558Z,7.10
2022-12-19T22:47:23.570Z,7.00
2022-12-19T22:50:03.946Z,7.57
2022-12-19T22:52:32.689Z,9.00
2022-12-19T22:55:00.250Z,14.73
2022-12-19T22:57:33.448Z,18.20
2022-12-19T23:00:13.129Z,15.70
2022-12-19T23:02:42.455Z,27.17
2022-12-19T23:05:24.816Z,21.63
2022-12-19T23:08:08.105Z,24.53
2022-12-19T23:10:42.961Z,21.77
2022-12-19T23:13:11.664Z,15.03
2022-12-19T23:15:45.786Z,15.07
2022-12-19T23:18:16.442Z,11.03
2022-12-19T23:20:44.207Z,13.10
2022-12-19T23:23:13.159Z,13.63
2022-12-19T23:25:42.245Z,14.50
2022-12-19T23:28:10.337Z,12.90
2022-12-19T23:30:39.081Z,16.17
2022-12-19T23:33:08.232Z,14.80
2022-12-19T23:35:35.864Z,16.17
2022-12-19T23:38:03.486Z,20.23
2022-12-19T23:40:37.915Z,16.53
2022-12-19T23:43:07.134Z,14.23
2022-12-19T23:45:39.488Z,11.23
2022-12-19T23:48:20.782Z,8.30
2022-12-19T23:51:00.157Z,7.30
2022-12-19T23:53:27.826Z,5.53
2022-12-19T23:56:07.106Z,5.13
2022-12-19T23:58:36.853Z,5.60
